createdAt,value
2022-08-21T00:01:38.041Z,19.50
2022-08-21T00:04:05.429Z,19.70
2022-08-21T00:06:32.212Z,19.56
2022-08-21T00:09:00.835Z,19.62
2022-08-21T00:11:30.775Z,19.50
2022-08-21T00:13:57.306Z,19.64
2022-08-21T00:16:23.834Z,19.46
2022-08-21T00:18:50.809Z,19.46
2022-08-21T00:21:17.651Z,19.54
2022-08-21T00:23:44.470Z,19.50
2022-08-21T00:26:10.962Z,19.37
2022-08-21T00:28:37.445Z,19.27
2022-08-21T00:31:04.946Z,19.25
2022-08-21T00:33:31.982Z,19.22
2022-08-21T00:35:58.593Z,19.20
2022-08-21T00:38:25.063Z,19.08
2022-08-21T00:40:53.503Z,19.06
2022-08-21T00:43:22.223Z,19.06
2022-08-21T00:45:49.129Z,19.06
2022-08-21T00:48:15.917Z,19.10
2022-08-21T00:50:56.719Z,19.01
2022-08-21T00:53:23.544Z,19.05
2022-08-21T00:55:50.446Z,19.03
2022-08-21T00:58:17.859Z,18.90
2022-08-21T01:00:47.092Z,18.81
2022-08-21T01:03:15.641Z,18.75
2022-08-21T01:05:43.023Z,18.81
2022-08-21T01:08:10.027Z,18.67
2022-08-21T01:10:38.030Z,18.77
2022-08-21T01:13:07.944Z,18.72
2022-08-21T01:15:37.554Z,18.93
2022-08-21T01:18:06.009Z,18.75
2022-08-21T01:20:33.167Z,18.81
2022-08-21T01:23:00.529Z,18.65
2022-08-21T01:25:26.977Z,18.70
2022-08-21T01:27:53.465Z,18.78
2022-08-21T01:30:22.066Z,18.97
2022-08-21T01:32:48.899Z,18.70
2022-08-21T01:35:17.164Z,18.77
2022-08-21T01:37:43.895Z,18.61
2022-08-21T01:40:11.667Z,18.61
2022-08-21T01:42:38.589Z,18.70
2022-08-21T01:45:05.927Z,18.70
2022-08-21T01:47:32.610Z,18.59
2022-08-21T01:49:59.326Z,18.57
2022-08-21T01:52:26.220Z,18.72
2022-08-21T01:54:55.663Z,18.60
2022-08-21T01:57:22.640Z,18.60
2022-08-21T01:59:53.368Z,18.43
2022-08-21T02:02:20.240Z,18.39
2022-08-21T02:04:46.685Z,18.33
2022-08-21T02:07:13.389Z,18.73
2022-08-21T02:09:40.240Z,18.53
2022-08-21T02:12:06.927Z,18.48
2022-08-21T02:14:33.390Z,18.66
2022-08-21T02:17:08.888Z,18.52
2022-08-21T02:19:40.343Z,18.43
2022-08-21T02:22:08.586Z,18.36
2022-08-21T02:24:35.045Z,18.38
2022-08-21T02:27:02.049Z,18.47
2022-08-21T02:29:28.513Z,18.35
2022-08-21T02:31:54.967Z,18.23
2022-08-21T02:34:22.269Z,18.11
2022-08-21T02:36:59.549Z,18.18
2022-08-21T02:39:27.066Z,18.27
2022-08-21T02:41:53.918Z,18.36
2022-08-21T02:44:20.390Z,18.32
2022-08-21T02:46:46.830Z,18.33
2022-08-21T02:49:13.282Z,18.13
2022-08-21T02:51:40.720Z,18.30
2022-08-21T02:54:07.722Z,18.39
2022-08-21T02:56:34.188Z,18.40
2022-08-21T02:59:00.655Z,18.21
2022-08-21T03:01:27.777Z,18.19
2022-08-21T03:03:54.654Z,18.26
2022-08-21T03:06:22.352Z,18.20
2022-08-21T03:08:49.156Z,18.18
2022-08-21T03:11:15.966Z,18.16
2022-08-21T03:13:42.672Z,18.27
2022-08-21T03:16:09.994Z,18.19
2022-08-21T03:18:36.772Z,18.22
2022-08-21T03:21:04.847Z,18.21
2022-08-21T03:23:32.710Z,18.20
2022-08-21T03:25:59.777Z,18.24
2022-08-21T03:28:26.515Z,18.18
2022-08-21T03:30:53.552Z,18.26
2022-08-21T03:33:20.488Z,18.29
2022-08-21T03:35:54.011Z,18.34
2022-08-21T03:38:25.861Z,18.20
2022-08-21T03:40:53.112Z,18.29
2022-08-21T03:43:19.642Z,18.35
2022-08-21T03:45:46.256Z,18.24
2022-08-21T03:48:13.302Z,18.19
2022-08-21T03:50:41.762Z,18.17
2022-08-21T03:53:09.205Z,18.15
2022-08-21T03:55:44.591Z,18.14
2022-08-21T03:58:16.997Z,18.20
2022-08-21T04:00:44.291Z,18.39
2022-08-21T04:03:10.898Z,18.26
2022-08-21T04:05:38.184Z,18.22
2022-08-21T04:08:05.595Z,18.25
2022-08-21T04:10:33.250Z,18.24
2022-08-21T04:12:59.858Z,18.39
2022-08-21T04:15:26.916Z,18.48
2022-08-21T04:17:53.550Z,18.40
2022-08-21T04:20:20.643Z,18.44
2022-08-21T04:22:47.352Z,18.37
2022-08-21T04:25:15.381Z,18.61
2022-08-21T04:27:41.962Z,18.48
2022-08-21T04:30:10.051Z,18.52
2022-08-21T04:32:37.746Z,18.55
2022-08-21T04:35:06.411Z,18.59
2022-08-21T04:37:33.256Z,18.56
2022-08-21T04:40:00.867Z,18.53
2022-08-21T04:42:28.601Z,18.48
2022-08-21T04:44:55.946Z,18.44
2022-08-21T04:47:24.980Z,18.58
2022-08-21T04:50:11.418Z,18.63
2022-08-21T04:52:38.708Z,18.70
2022-08-21T04:55:05.363Z,18.72
2022-08-21T04:57:39.657Z,18.64
2022-08-21T05:00:16.014Z,18.89
2022-08-21T05:02:43.026Z,18.82
2022-08-21T05:05:09.635Z,18.93
2022-08-21T05:07:42.235Z,18.80
2022-08-21T05:10:10.180Z,18.88
2022-08-21T05:12:39.420Z,18.86
2022-08-21T05:15:06.143Z,18.94
2022-08-21T05:17:32.700Z,19.21
2022-08-21T05:19:59.187Z,19.10
2022-08-21T05:22:25.702Z,19.23
2022-08-21T05:24:53.333Z,19.33
2022-08-21T05:27:20.085Z,19.46
2022-08-21T05:29:46.616Z,19.37
2022-08-21T05:32:14.893Z,19.52
2022-08-21T05:34:42.448Z,19.26
2022-08-21T05:37:11.502Z,19.40
2022-08-21T05:40:05.284Z,19.37
2022-08-21T05:42:24.588Z,19.39
2022-08-21T05:44:51.102Z,19.38
2022-08-21T05:47:17.734Z,19.76
2022-08-21T05:49:44.229Z,19.73
2022-08-21T05:52:10.733Z,19.72
2022-08-21T05:54:37.748Z,20.01
2022-08-21T05:57:04.361Z,20.15
2022-08-21T05:59:30.824Z,19.70
2022-08-21T06:01:57.353Z,20.12
2022-08-21T06:04:23.867Z,19.93
2022-08-21T06:06:50.348Z,20.08
2022-08-21T06:09:16.861Z,19.95
2022-08-21T06:11:43.373Z,19.94
2022-08-21T06:14:10.189Z,19.78
2022-08-21T06:16:36.634Z,20.02
2022-08-21T06:19:04.537Z,19.93
2022-08-21T06:21:31.231Z,20.12
2022-08-21T06:23:57.753Z,20.24
2022-08-21T06:26:24.798Z,20.07
2022-08-21T06:28:52.560Z,20.03
2022-08-21T06:31:20.874Z,20.33
2022-08-21T06:33:47.856Z,20.29
2022-08-21T06:36:14.661Z,20.49
2022-08-21T06:38:41.617Z,20.62
2022-08-21T06:41:17.259Z,20.77
2022-08-21T06:43:43.795Z,20.81
2022-08-21T06:46:10.320Z,21.06
2022-08-21T06:48:36.969Z,20.81
2022-08-21T06:51:03.949Z,20.85
2022-08-21T06:53:30.420Z,21.10
2022-08-21T06:55:56.891Z,21.10
2022-08-21T06:58:23.468Z,21.06
2022-08-21T07:00:52.194Z,21.18
2022-08-21T07:03:22.939Z,21.12
2022-08-21T07:05:50.721Z,21.67
2022-08-21T07:08:17.591Z,21.96
2022-08-21T07:10:44.136Z,21.36
2022-08-21T07:13:10.665Z,21.97
2022-08-21T07:15:37.151Z,21.93
2022-08-21T07:18:03.768Z,21.29
2022-08-21T07:20:31.323Z,21.78
2022-08-21T07:23:00.658Z,21.78
2022-08-21T07:25:27.304Z,22.04
2022-08-21T07:27:54.048Z,21.40
2022-08-21T07:30:23.272Z,21.91
2022-08-21T07:32:52.516Z,22.30
2022-08-21T07:35:19.881Z,22.15
2022-08-21T07:37:46.610Z,22.53
2022-08-21T07:40:13.677Z,22.11
2022-08-21T07:42:44.029Z,21.82
2022-08-21T07:45:10.815Z,21.95
2022-08-21T07:47:42.091Z,22.25
2022-08-21T07:50:09.995Z,22.04
2022-08-21T07:52:36.486Z,23.03
2022-08-21T07:55:06.313Z,22.90
2022-08-21T07:57:33.493Z,24.73
2022-08-21T08:00:00.026Z,24.76
2022-08-21T08:02:27.776Z,24.72
2022-08-21T08:04:54.356Z,24.80
2022-08-21T08:07:20.870Z,25.60
2022-08-21T08:09:47.341Z,24.50
2022-08-21T08:12:13.791Z,24.07
2022-08-21T08:14:40.287Z,23.82
2022-08-21T08:17:06.740Z,24.11
2022-08-21T08:19:33.206Z,23.31
2022-08-21T08:21:59.694Z,23.67
2022-08-21T08:24:26.171Z,23.25
2022-08-21T08:26:53.655Z,24.29
2022-08-21T08:29:21.313Z,24.23
2022-08-21T08:31:47.815Z,24.27
2022-08-21T08:34:24.963Z,24.47
2022-08-21T08:36:52.297Z,24.03
2022-08-21T08:39:26.507Z,23.25
2022-08-21T08:42:01.111Z,23.28
2022-08-21T08:44:30.278Z,23.74
2022-08-21T08:46:58.215Z,23.24
2022-08-21T08:49:45.209Z,23.90
2022-08-21T08:52:12.253Z,24.85
2022-08-21T08:54:41.105Z,24.67
2022-08-21T08:57:11.235Z,24.24
2022-08-21T08:59:40.862Z,23.82
2022-08-21T09:02:09.522Z,25.16
2022-08-21T09:04:36.575Z,25.49
2022-08-21T09:07:24.175Z,25.79
2022-08-21T09:10:04.235Z,26.62
2022-08-21T09:12:39.081Z,27.64
2022-08-21T09:15:12.160Z,26.77
2022-08-21T09:17:57.965Z,26.42
2022-08-21T09:20:43.338Z,26.24
2022-08-21T09:23:15.840Z,26.99
2022-08-21T09:26:00.935Z,27.99
2022-08-21T09:28:27.778Z,27.70
2022-08-21T09:30:56.593Z,26.83
2022-08-21T09:33:23.558Z,27.87
2022-08-21T09:35:54.095Z,25.74
2022-08-21T09:38:26.251Z,26.98
2022-08-21T09:40:57.701Z,26.67
2022-08-21T09:43:27.581Z,26.85
2022-08-21T09:46:10.893Z,25.96
2022-08-21T09:48:48.153Z,24.98
2022-08-21T09:51:25.339Z,25.65
2022-08-21T09:53:54.693Z,26.50
2022-08-21T09:57:12.429Z,25.99
2022-08-21T09:59:38.956Z,25.80
2022-08-21T10:02:17.672Z,26.77
2022-08-21T10:04:50.295Z,26.15
2022-08-21T10:07:21.499Z,26.15
2022-08-21T10:09:58.759Z,26.12
2022-08-21T10:12:29.641Z,25.66
2022-08-21T10:15:11.234Z,26.58
2022-08-21T10:17:57.941Z,25.73
2022-08-21T10:20:44.899Z,26.69
2022-08-21T10:23:23.783Z,25.52
2022-08-21T10:26:12.918Z,25.95
2022-08-21T10:29:04.117Z,25.45
2022-08-21T10:31:37.837Z,26.39
2022-08-21T10:34:04.238Z,27.05
2022-08-21T10:36:36.669Z,26.31
2022-08-21T10:39:34.903Z,25.80
2022-08-21T10:42:01.601Z,25.91
2022-08-21T10:44:29.273Z,25.40
2022-08-21T10:47:01.251Z,24.74
2022-08-21T10:49:27.745Z,24.43
2022-08-21T10:52:09.085Z,24.37
2022-08-21T10:54:53.892Z,24.33
2022-08-21T10:57:32.070Z,24.89
2022-08-21T11:00:07.692Z,24.06
2022-08-21T11:02:37.966Z,24.25
2022-08-21T11:05:26.779Z,24.13
2022-08-21T11:08:01.229Z,24.06
2022-08-21T11:10:57.862Z,24.18
2022-08-21T11:13:43.725Z,24.04
2022-08-21T11:16:13.062Z,24.10
2022-08-21T11:18:46.264Z,23.99
2022-08-21T11:21:31.456Z,24.22
2022-08-21T11:24:07.093Z,24.03
2022-08-21T11:26:37.539Z,23.96
2022-08-21T11:29:18.479Z,24.20
2022-08-21T11:31:44.900Z,24.20
2022-08-21T11:34:37.077Z,24.07
2022-08-21T11:37:15.776Z,23.99
2022-08-21T11:39:44.999Z,23.75
2022-08-21T11:42:20.745Z,24.13
2022-08-21T11:44:50.749Z,24.35
2022-08-21T11:47:26.377Z,24.09
2022-08-21T11:49:52.806Z,24.32
2022-08-21T11:52:19.471Z,24.67
2022-08-21T11:54:45.926Z,24.68
2022-08-21T11:57:16.456Z,24.68
2022-08-21T12:00:01.808Z,25.12
2022-08-21T12:02:35.947Z,25.35
2022-08-21T12:05:08.761Z,24.46
2022-08-21T12:07:38.034Z,24.28
2022-08-21T12:10:21.969Z,24.82
2022-08-21T12:12:49.008Z,24.89
2022-08-21T12:15:21.374Z,25.04
2022-08-21T12:17:54.075Z,24.81
2022-08-21T12:20:34.097Z,25.11
2022-08-21T12:23:12.672Z,24.46
2022-08-21T12:25:42.022Z,24.40
2022-08-21T12:28:10.758Z,24.66
2022-08-21T12:30:39.151Z,24.46
2022-08-21T12:33:07.359Z,24.41
2022-08-21T12:35:43.986Z,24.71
2022-08-21T12:38:16.871Z,24.65
2022-08-21T12:40:46.896Z,24.28
2022-08-21T12:43:19.467Z,24.65
2022-08-21T12:45:48.091Z,24.63
2022-08-21T12:48:17.767Z,24.46
2022-08-21T12:50:50.529Z,24.41
2022-08-21T12:53:29.386Z,24.53
2022-08-21T12:56:00.921Z,24.57
2022-08-21T12:58:27.490Z,24.55
2022-08-21T13:01:18.340Z,24.23
2022-08-21T13:03:45.445Z,24.31
2022-08-21T13:06:17.495Z,24.22
2022-08-21T13:08:47.383Z,24.38
2022-08-21T13:11:16.624Z,24.09
2022-08-21T13:14:02.835Z,24.05
2022-08-21T13:16:32.198Z,23.66
2022-08-21T13:19:00.105Z,23.34
2022-08-21T13:21:31.736Z,23.07
2022-08-21T13:24:38.713Z,22.98
2022-08-21T13:26:58.471Z,22.85
2022-08-21T13:29:29.837Z,22.63
2022-08-21T13:31:57.854Z,22.64
2022-08-21T13:34:26.565Z,22.58
2022-08-21T13:36:55.800Z,22.36
2022-08-21T13:39:22.371Z,22.36
2022-08-21T13:41:51.484Z,22.43
2022-08-21T13:44:37.885Z,22.49
2022-08-21T13:47:05.609Z,22.42
2022-08-21T13:49:43.168Z,22.50
2022-08-21T13:52:23.074Z,22.54
2022-08-21T13:54:55.283Z,22.52
2022-08-21T13:57:29.684Z,22.09
2022-08-21T14:00:13.205Z,22.22
2022-08-21T14:02:41.856Z,22.15
2022-08-21T14:05:15.243Z,22.70
2022-08-21T14:07:43.603Z,22.15
2022-08-21T14:10:18.891Z,22.40
2022-08-21T14:12:48.600Z,22.25
2022-08-21T14:15:16.397Z,22.40
2022-08-21T14:17:43.676Z,22.50
2022-08-21T14:20:12.292Z,22.32
2022-08-21T14:22:59.006Z,22.52
2022-08-21T14:25:25.708Z,22.70
2022-08-21T14:27:53.849Z,22.54
2022-08-21T14:30:29.163Z,22.27
2022-08-21T14:32:56.555Z,22.26
2022-08-21T14:35:40.830Z,22.14
2022-08-21T14:38:16.381Z,21.95
2022-08-21T14:40:44.040Z,22.13
2022-08-21T14:43:28.724Z,22.21
2022-08-21T14:45:55.917Z,21.77
2022-08-21T14:48:23.015Z,21.81
2022-08-21T14:51:07.399Z,22.02
2022-08-21T14:53:33.950Z,21.73
2022-08-21T14:56:07.264Z,21.25
2022-08-21T14:58:36.082Z,21.13
2022-08-21T15:01:05.123Z,21.20
2022-08-21T15:03:52.407Z,20.95
2022-08-21T15:06:22.053Z,21.11
2022-08-21T15:09:08.713Z,20.61
2022-08-21T15:11:42.260Z,20.32
2022-08-21T15:14:15.208Z,20.43
2022-08-21T15:17:02.320Z,20.41
2022-08-21T15:19:31.376Z,20.37
2022-08-21T15:22:19.048Z,20.50
2022-08-21T15:24:54.202Z,20.48
2022-08-21T15:28:11.700Z,20.08
2022-08-21T15:30:50.558Z,20.02
2022-08-21T15:33:17.281Z,19.86
2022-08-21T15:35:43.874Z,19.93
2022-08-21T15:38:11.213Z,19.84
2022-08-21T15:40:38.957Z,19.83
2022-08-21T15:43:06.412Z,19.88
2022-08-21T15:45:33.709Z,19.79
2022-08-21T15:48:00.392Z,19.89
2022-08-21T15:50:27.211Z,19.71
2022-08-21T15:52:54.035Z,19.72
2022-08-21T15:55:21.714Z,19.63
2022-08-21T15:57:57.449Z,19.70
2022-08-21T16:00:25.603Z,19.79
2022-08-21T16:02:57.757Z,19.80
2022-08-21T16:05:24.472Z,19.75
2022-08-21T16:07:51.792Z,19.73
2022-08-21T16:10:20.089Z,19.88
2022-08-21T16:12:49.919Z,19.89
2022-08-21T16:15:20.632Z,19.95
2022-08-21T16:17:49.217Z,19.92
2022-08-21T16:20:18.674Z,19.94
2022-08-21T16:22:45.284Z,19.93
2022-08-21T16:25:12.671Z,20.00
2022-08-21T16:27:41.075Z,20.10
2022-08-21T16:30:07.820Z,20.18
2022-08-21T16:32:35.465Z,20.19
2022-08-21T16:35:02.831Z,20.24
2022-08-21T16:37:29.352Z,20.28
2022-08-21T16:39:55.893Z,20.29
2022-08-21T16:42:24.390Z,20.05
2022-08-21T16:44:50.948Z,20.03
2022-08-21T16:47:26.734Z,20.04
2022-08-21T16:49:54.005Z,19.98
2022-08-21T16:52:20.468Z,19.85
2022-08-21T16:54:46.952Z,19.81
2022-08-21T16:57:14.165Z,19.80
2022-08-21T16:59:41.172Z,19.77
2022-08-21T17:02:34.214Z,19.66
2022-08-21T17:05:02.567Z,19.73
2022-08-21T17:07:29.179Z,19.77
2022-08-21T17:09:55.854Z,19.72
2022-08-21T17:12:22.872Z,19.64
2022-08-21T17:14:49.922Z,19.53
2022-08-21T17:17:16.649Z,19.64
2022-08-21T17:19:43.428Z,19.64
2022-08-21T17:22:10.418Z,19.64
2022-08-21T17:24:37.743Z,19.54
2022-08-21T17:27:05.079Z,19.58
2022-08-21T17:29:34.280Z,19.73
2022-08-21T17:32:00.974Z,19.62
2022-08-21T17:34:31.090Z,19.70
2022-08-21T17:36:59.014Z,19.65
2022-08-21T17:39:26.665Z,19.72
2022-08-21T17:41:56.360Z,19.78
2022-08-21T17:44:25.285Z,19.81
2022-08-21T17:46:51.778Z,19.80
2022-08-21T17:49:18.239Z,19.72
2022-08-21T17:51:44.755Z,19.66
2022-08-21T17:54:11.353Z,19.71
2022-08-21T17:56:39.546Z,19.46
2022-08-21T17:59:07.643Z,19.40
2022-08-21T18:01:37.379Z,19.50
2022-08-21T18:04:04.066Z,19.48
2022-08-21T18:06:30.726Z,19.46
2022-08-21T18:08:57.992Z,19.43
2022-08-21T18:11:26.215Z,19.55
2022-08-21T18:13:54.232Z,19.34
2022-08-21T18:16:21.648Z,19.34
2022-08-21T18:18:49.158Z,19.33
2022-08-21T18:21:15.823Z,19.29
2022-08-21T18:23:44.059Z,19.37
2022-08-21T18:26:13.060Z,19.29
2022-08-21T18:28:40.749Z,19.36
2022-08-21T18:31:08.784Z,19.42
2022-08-21T18:33:35.747Z,19.39
2022-08-21T18:36:04.769Z,19.33
2022-08-21T18:38:31.446Z,19.22
2022-08-21T18:40:59.670Z,19.31
2022-08-21T18:43:26.580Z,19.26
2022-08-21T18:45:53.061Z,19.20
2022-08-21T18:48:20.403Z,19.32
2022-08-21T18:50:47.886Z,19.38
2022-08-21T18:53:36.526Z,19.33
2022-08-21T18:56:05.289Z,19.26
2022-08-21T18:58:32.570Z,19.27
2022-08-21T19:00:59.104Z,19.33
2022-08-21T19:03:25.727Z,19.38
2022-08-21T19:05:53.573Z,19.35
2022-08-21T19:08:21.491Z,19.46
2022-08-21T19:10:49.158Z,19.40
2022-08-21T19:13:16.991Z,19.28
2022-08-21T19:15:45.393Z,19.29
2022-08-21T19:18:13.562Z,19.35
2022-08-21T19:20:43.970Z,19.22
2022-08-21T19:23:15.969Z,19.22
2022-08-21T19:25:44.770Z,19.36
2022-08-21T19:28:13.102Z,19.38
2022-08-21T19:30:42.193Z,19.48
2022-08-21T19:36:03.417Z,19.52
2022-08-21T19:38:30.089Z,19.42
2022-08-21T19:40:58.928Z,19.48
2022-08-21T19:43:25.734Z,19.51
2022-08-21T19:45:56.850Z,19.30
2022-08-21T19:48:24.765Z,19.35
2022-08-21T19:50:52.481Z,19.20
2022-08-21T19:53:19.285Z,19.15
2022-08-21T19:55:46.763Z,19.26
2022-08-21T19:58:35.128Z,19.32
2022-08-21T20:01:03.655Z,19.37
2022-08-21T20:03:38.173Z,19.43
2022-08-21T20:06:09.759Z,19.45
2022-08-21T20:08:36.545Z,19.20
2022-08-21T20:11:04.560Z,19.27
2022-08-21T20:13:33.846Z,19.39
2022-08-21T20:16:01.445Z,19.46
2022-08-21T20:18:28.215Z,19.50
2022-08-21T20:20:55.789Z,19.38
2022-08-21T20:23:30.031Z,19.47
2022-08-21T20:25:57.398Z,19.50
2022-08-21T20:28:23.906Z,19.41
2022-08-21T20:30:53.047Z,19.52
2022-08-21T20:33:20.223Z,19.52
2022-08-21T20:35:50.104Z,19.52
2022-08-21T20:38:17.117Z,19.48
2022-08-21T20:40:44.312Z,19.32
2022-08-21T20:43:16.361Z,19.32
2022-08-21T20:45:42.834Z,19.28
2022-08-21T20:48:14.376Z,19.16
2022-08-21T20:50:44.716Z,19.25
2022-08-21T20:53:13.475Z,19.41
2022-08-21T20:55:43.979Z,19.33
2022-08-21T20:58:33.934Z,19.28
2022-08-21T21:01:03.297Z,19.29
2022-08-21T21:03:34.032Z,19.25
2022-08-21T21:06:22.728Z,19.35
2022-08-21T21:08:54.495Z,19.41
2022-08-21T21:11:26.136Z,19.21
2022-08-21T21:13:52.631Z,19.29
2022-08-21T21:16:21.865Z,19.32
2022-08-21T21:18:51.455Z,19.36
2022-08-21T21:21:37.402Z,19.37
2022-08-21T21:24:07.913Z,19.26
2022-08-21T21:26:46.333Z,19.34
2022-08-21T21:29:29.873Z,19.38
2022-08-21T21:31:56.782Z,19.24
2022-08-21T21:34:24.552Z,19.19
2022-08-21T21:37:03.015Z,19.30
2022-08-21T21:42:30.177Z,19.35
2022-08-21T21:44:57.015Z,19.37
2022-08-21T21:47:32.062Z,19.46
2022-08-21T21:49:58.472Z,19.26
2022-08-21T21:52:37.064Z,19.34
2022-08-21T21:55:13.005Z,19.11
2022-08-21T21:57:44.815Z,19.16
2022-08-21T22:00:18.202Z,19.21
2022-08-21T22:02:55.067Z,19.04
2022-08-21T22:05:56.302Z,18.99
2022-08-21T22:08:34.144Z,19.18
2022-08-21T22:11:09.045Z,19.08
2022-08-21T22:14:00.345Z,19.28
2022-08-21T22:16:27.072Z,19.15
2022-08-21T22:19:00.169Z,19.15
2022-08-21T22:24:22.422Z,19.13
2022-08-21T22:26:50.739Z,18.86
2022-08-21T22:29:18.443Z,18.81
2022-08-21T22:31:59.751Z,18.90
2022-08-21T22:34:28.787Z,18.96
2022-08-21T22:36:59.369Z,18.70
2022-08-21T22:42:22.223Z,18.70
2022-08-21T22:44:57.234Z,18.60
2022-08-21T22:47:35.306Z,18.50
2022-08-21T22:50:05.122Z,18.38
2022-08-21T22:52:33.395Z,18.57
2022-08-21T22:55:18.354Z,18.39
2022-08-21T22:58:20.463Z,18.52
2022-08-21T23:00:50.274Z,18.48
2022-08-21T23:03:21.459Z,18.50
2022-08-21T23:05:49.424Z,18.43
2022-08-21T23:08:25.250Z,18.57
2022-08-21T23:10:56.714Z,18.58
2022-08-21T23:13:23.308Z,18.32
2022-08-21T23:15:59.098Z,18.33
2022-08-21T23:18:46.646Z,18.39
2022-08-21T23:21:13.139Z,18.30
2022-08-21T23:23:56.857Z,18.19
2022-08-21T23:26:28.617Z,18.15
2022-08-21T23:29:07.720Z,18.05
2022-08-21T23:31:40.609Z,18.09
2022-08-21T23:34:25.597Z,18.15
2022-08-21T23:37:17.009Z,18.18
2022-08-21T23:39:46.232Z,18.11
2022-08-21T23:42:31.452Z,18.11
2022-08-21T23:44:57.885Z,17.87
2022-08-21T23:47:33.588Z,18.16
2022-08-21T23:50:13.911Z,18.07
2022-08-21T23:53:09.080Z,18.18
2022-08-21T23:55:55.354Z,18.28
2022-08-21T23:58:41.009Z,18.33
